Time;durP1;ratioP1;P1;durP2;ratioP2;P2;SDS_P1;SDS_P2;PMS_P1;PMS_P2;Temp;Humidity;BMP_temperature;BMP_pressure;BME280_temperature;BME280_humidity;BME280_pressure;Samples;Min_cycle;Max_cycle;Signal;HPM_P1;HPM_P2
2023/05/02 00:01:18;;;;;;;1.23;0.93;;;11.30;99.90;;;;;;5053225;28;20472;-90
2023/05/02 00:03:45;;;;;;;1.40;1.00;;;11.40;99.90;;;;;;5053108;28;20473;-90
2023/05/02 00:06:13;;;;;;;1.87;0.77;;;11.40;99.90;;;;;;5053107;28;20476;-90
2023/05/02 00:08:40;;;;;;;1.30;0.80;;;11.30;99.90;;;;;;5052978;28;20464;-90
2023/05/02 00:11:07;;;;;;;1.50;1.00;;;11.30;99.90;;;;;;5052958;28;20527;-90
2023/05/02 00:13:34;;;;;;;1.50;1.13;;;11.30;99.90;;;;;;5053401;28;20918;-90
2023/05/02 00:16:01;;;;;;;2.40;1.10;;;11.30;99.90;;;;;;5052783;28;20461;-90
2023/05/02 00:18:28;;;;;;;1.20;0.80;;;11.30;99.90;;;;;;5052797;28;20507;-90
2023/05/02 00:20:56;;;;;;;1.77;1.23;;;11.30;99.90;;;;;;5052057;28;20448;-90
2023/05/02 00:23:24;;;;;;;1.53;0.80;;;11.30;99.90;;;;;;5052448;28;20476;-90
2023/05/02 00:25:51;;;;;;;1.30;0.90;;;11.30;99.90;;;;;;5052056;28;20464;-89
2023/05/02 00:28:18;;;;;;;1.30;0.90;;;11.40;99.90;;;;;;5052608;28;20891;-89
2023/05/02 00:30:45;;;;;;;1.57;0.90;;;11.30;99.90;;;;;;5052824;28;20562;-89
2023/05/02 00:33:13;;;;;;;1.97;0.80;;;11.40;99.90;;;;;;5052821;28;20473;-90
2023/05/02 00:35:40;;;;;;;1.50;1.00;;;11.30;99.90;;;;;;5052699;28;20453;-90
2023/05/02 00:38:07;;;;;;;1.60;1.33;;;11.20;99.90;;;;;;5052627;28;20445;-90
2023/05/02 00:40:45;;;;;;;1.67;1.10;;;11.20;99.90;;;;;;5052624;28;21001;-90
2023/05/02 00:43:13;;;;;;;1.20;0.77;;;11.20;99.90;;;;;;5052825;28;20444;-90
2023/05/02 00:45:42;;;;;;;1.40;1.07;;;11.10;99.90;;;;;;5052705;28;20514;-90
2023/05/02 00:48:09;;;;;;;1.37;1.00;;;11.10;99.90;;;;;;5052393;28;20461;-90
2023/05/02 00:50:39;;;;;;;1.50;1.07;;;11.10;99.90;;;;;;5052437;28;20902;-89
2023/05/02 00:53:06;;;;;;;1.40;1.10;;;11.20;99.90;;;;;;5052763;28;20457;-89
2023/05/02 00:55:34;;;;;;;1.90;1.10;;;11.20;99.90;;;;;;5052909;28;21025;-90
2023/05/02 00:58:05;;;;;;;1.30;1.00;;;11.20;99.90;;;;;;5056724;28;20439;-89
2023/05/02 01:00:45;;;;;;;1.87;1.03;;;11.20;99.90;;;;;;5059358;28;20445;-89
2023/05/02 01:03:20;;;;;;;1.23;0.90;;;11.30;99.90;;;;;;5053808;28;20517;-89
2023/05/02 01:05:58;;;;;;;1.40;1.20;;;11.20;99.90;;;;;;5052310;28;20519;-89
2023/05/02 01:08:35;;;;;;;1.90;1.10;;;11.30;99.90;;;;;;5052448;28;20485;-89
2023/05/02 01:11:10;;;;;;;1.70;1.20;;;11.30;99.90;;;;;;5052290;28;20464;-90
2023/05/02 01:13:41;;;;;;;1.60;1.00;;;11.30;99.90;;;;;;5052342;28;20999;-90
2023/05/02 01:16:12;;;;;;;1.53;1.10;;;11.30;99.90;;;;;;5052347;28;20864;-90
2023/05/02 01:18:42;;;;;;;1.90;1.20;;;11.40;99.90;;;;;;5052265;28;20468;-89
2023/05/02 01:21:11;;;;;;;1.67;1.10;;;11.30;99.90;;;;;;5052082;28;20428;-90
2023/05/02 01:23:53;;;;;;;1.33;1.07;;;11.30;99.90;;;;;;5052351;28;20526;-90
2023/05/02 01:26:29;;;;;;;2.43;1.30;;;11.20;99.90;;;;;;5052300;28;20873;-90
2023/05/02 01:29:00;;;;;;;1.60;1.00;;;11.10;99.90;;;;;;5052046;28;20453;-89
2023/05/02 01:31:31;;;;;;;1.60;1.20;;;11.10;99.90;;;;;;5053324;28;20541;-90
2023/05/02 01:34:00;;;;;;;1.93;1.03;;;11.10;99.90;;;;;;5055903;28;20523;-90
2023/05/02 01:36:30;;;;;;;2.50;1.20;;;11.10;99.90;;;;;;5055929;28;20453;-90
2023/05/02 01:38:58;;;;;;;1.60;1.40;;;11.10;99.90;;;;;;5038147;28;20948;-90
2023/05/02 01:41:27;;;;;;;1.80;1.27;;;11.20;99.90;;;;;;5035861;28;20525;-90
2023/05/02 01:43:57;;;;;;;1.70;1.20;;;11.20;99.90;;;;;;5035300;28;20497;-90
2023/05/02 01:46:30;;;;;;;1.50;1.00;;;11.20;99.90;;;;;;5036090;28;20500;-90
2023/05/02 01:48:59;;;;;;;1.47;1.27;;;11.10;99.90;;;;;;5035474;28;20459;-90
2023/05/02 01:51:30;;;;;;;1.50;1.20;;;11.10;99.90;;;;;;5036165;28;20504;-90
2023/05/02 01:54:01;;;;;;;1.87;1.47;;;11.00;99.90;;;;;;5035651;28;20835;-90
2023/05/02 01:56:31;;;;;;;1.60;1.30;;;11.10;99.90;;;;;;5035750;28;20467;-90
2023/05/02 01:59:00;;;;;;;1.33;1.23;;;11.00;99.90;;;;;;5035462;28;21000;-90
2023/05/02 02:01:30;;;;;;;2.27;1.30;;;11.10;99.90;;;;;;5035523;28;20449;-90
2023/05/02 02:03:58;;;;;;;1.20;1.10;;;11.00;99.90;;;;;;5035722;28;20492;-90
2023/05/02 02:06:26;;;;;;;1.60;1.20;;;11.10;99.90;;;;;;5035462;28;20542;-90
2023/05/02 02:08:53;;;;;;;2.07;1.40;;;11.00;99.90;;;;;;5035532;28;20506;-90
2023/05/02 02:11:26;;;;;;;1.70;1.50;;;11.00;99.90;;;;;;5035164;28;20472;-90
2023/05/02 02:14:02;;;;;;;1.90;1.43;;;10.90;99.90;;;;;;5035329;28;20511;-90
2023/05/02 02:16:37;;;;;;;1.40;1.30;;;10.90;99.90;;;;;;5035250;28;20416;-90
2023/05/02 02:19:08;;;;;;;1.97;1.60;;;10.80;99.90;;;;;;5035349;28;20433;-90
2023/05/02 02:21:37;;;;;;;1.53;1.40;;;10.90;99.90;;;;;;5035597;28;20445;-90
2023/05/02 02:24:06;;;;;;;1.80;1.60;;;10.80;99.90;;;;;;5034700;28;20511;-90
2023/05/02 02:26:34;;;;;;;1.77;1.47;;;10.80;99.90;;;;;;5035054;28;20458;-90
2023/05/02 02:29:01;;;;;;;1.83;1.40;;;10.90;99.90;;;;;;5034717;28;20453;-90
2023/05/02 02:31:32;;;;;;;1.73;1.20;;;10.90;99.90;;;;;;5037056;28;20492;-90
2023/05/02 02:34:00;;;;;;;1.60;1.30;;;10.80;99.90;;;;;;5041154;28;20484;-89
2023/05/02 02:36:33;;;;;;;1.87;1.47;;;10.90;99.90;;;;;;5037638;28;20450;-88
2023/05/02 02:39:10;;;;;;;2.80;1.63;;;10.90;99.90;;;;;;5042963;28;20422;-89
2023/05/02 02:41:44;;;;;;;1.63;1.47;;;11.00;99.90;;;;;;5035667;28;20505;-89
2023/05/02 02:44:26;;;;;;;2.37;1.60;;;11.00;99.90;;;;;;5033691;28;20457;-89
2023/05/02 02:47:05;;;;;;;2.20;1.97;;;11.00;99.90;;;;;;5034685;28;20545;-89
2023/05/02 02:49:39;;;;;;;1.60;1.50;;;11.00;99.90;;;;;;5034451;28;20474;-90
2023/05/02 02:52:14;;;;;;;2.30;1.43;;;11.00;99.90;;;;;;5034576;28;20481;-90
2023/05/02 02:54:45;;;;;;;2.07;1.50;;;11.00;99.90;;;;;;5034488;28;20461;-90
2023/05/02 02:57:20;;;;;;;1.87;1.30;;;10.90;99.90;;;;;;5034795;28;20433;-90
2023/05/02 02:59:56;;;;;;;1.80;1.20;;;10.90;99.90;;;;;;5034582;28;20484;-90
2023/05/02 03:02:30;;;;;;;1.63;1.30;;;10.80;99.90;;;;;;5034647;28;20527;-90
2023/05/02 03:04:58;;;;;;;2.27;1.60;;;10.90;99.90;;;;;;5034381;28;20499;-90
2023/05/02 03:07:28;;;;;;;1.80;1.50;;;10.90;99.90;;;;;;5034356;28;20549;-90
2023/05/02 03:09:55;;;;;;;2.43;1.40;;;10.80;99.90;;;;;;5034383;28;20469;-90
2023/05/02 03:12:22;;;;;;;1.60;1.50;;;10.90;99.90;;;;;;5034235;28;20478;-90
2023/05/02 03:14:49;;;;;;;1.70;1.40;;;11.10;99.90;;;;;;5034338;28;20503;-89
2023/05/02 03:17:16;;;;;;;1.97;1.57;;;11.10;99.90;;;;;;5035407;28;20449;-89
2023/05/02 03:19:46;;;;;;;2.60;1.60;;;11.20;99.90;;;;;;5034161;28;20474;-90
2023/05/02 03:22:13;;;;;;;2.27;1.70;;;11.20;99.90;;;;;;5034170;28;20511;-89
2023/05/02 03:24:40;;;;;;;2.43;1.73;;;11.10;99.90;;;;;;5033478;28;20484;-90
2023/05/02 03:27:07;;;;;;;1.80;1.60;;;11.10;99.90;;;;;;5033604;28;20435;-90
2023/05/02 03:29:34;;;;;;;5.03;2.03;;;11.10;99.90;;;;;;5033571;28;20445;-90
2023/05/02 03:32:01;;;;;;;2.10;1.90;;;11.20;99.90;;;;;;5033802;28;20479;-90
2023/05/02 03:34:28;;;;;;;2.90;2.23;;;11.10;99.90;;;;;;5032979;28;20489;-89
2023/05/02 03:36:56;;;;;;;2.00;1.80;;;11.10;99.90;;;;;;5033837;28;20523;-90
2023/05/02 03:39:23;;;;;;;2.13;1.80;;;11.10;99.90;;;;;;5033623;28;20457;-90
2023/05/02 03:41:50;;;;;;;2.30;2.00;;;11.10;99.90;;;;;;5033659;28;20457;-90
2023/05/02 03:44:17;;;;;;;2.40;2.03;;;11.10;99.90;;;;;;5033180;28;20926;-90
2023/05/02 03:46:44;;;;;;;3.37;2.90;;;11.00;99.90;;;;;;5032869;28;20785;-90
2023/05/02 03:49:12;;;;;;;3.97;2.90;;;10.90;99.90;;;;;;5033197;28;20443;-90
2023/05/02 03:51:39;;;;;;;2.80;2.60;;;10.90;99.90;;;;;;5036005;28;20480;-90
2023/05/02 03:54:08;;;;;;;2.90;2.60;;;10.90;99.90;;;;;;5053291;28;20465;-90
2023/05/02 03:56:36;;;;;;;2.60;2.33;;;10.90;99.90;;;;;;5053840;28;20450;-90
2023/05/02 03:59:04;;;;;;;3.20;2.70;;;11.00;99.90;;;;;;5053550;28;20480;-91
2023/05/02 04:01:31;;;;;;;2.60;2.40;;;10.90;99.90;;;;;;5054927;28;20548;-90
2023/05/02 04:03:58;;;;;;;4.23;2.37;;;10.80;99.90;;;;;;5053747;28;20542;-90
2023/05/02 04:06:25;;;;;;;2.63;2.43;;;10.90;99.90;;;;;;5040533;28;20512;-90
2023/05/02 04:08:52;;;;;;;2.80;1.97;;;10.90;99.90;;;;;;5034025;28;20454;-89
2023/05/02 04:11:20;;;;;;;2.50;2.00;;;11.00;99.90;;;;;;5033741;28;20521;-90
2023/05/02 04:13:47;;;;;;;2.43;2.23;;;11.10;99.90;;;;;;5034011;28;20500;-90
2023/05/02 04:16:14;;;;;;;2.53;2.33;;;11.00;99.90;;;;;;5042972;28;20480;-89
2023/05/02 04:18:41;;;;;;;4.10;2.63;;;10.90;99.90;;;;;;5035789;28;20947;-89
2023/05/02 04:21:09;;;;;;;2.53;2.03;;;10.90;99.90;;;;;;5044019;28;20483;-90
2023/05/02 04:23:36;;;;;;;2.90;2.70;;;10.90;99.90;;;;;;5056387;28;20464;-90
2023/05/02 04:26:03;;;;;;;2.60;2.40;;;11.00;99.90;;;;;;5054532;28;20533;-90
2023/05/02 04:28:31;;;;;;;3.37;2.60;;;10.90;99.90;;;;;;5053323;28;20543;-90
2023/05/02 04:30:58;;;;;;;4.10;2.67;;;10.90;99.90;;;;;;5052794;28;20449;-90
2023/05/02 04:33:25;;;;;;;3.40;2.73;;;11.00;99.90;;;;;;5052701;28;20501;-90
2023/05/02 04:35:52;;;;;;;3.83;2.57;;;11.00;99.90;;;;;;5051682;28;20535;-90
2023/05/02 04:38:20;;;;;;;2.47;2.27;;;11.10;99.90;;;;;;5070396;22;21229;-52
2023/05/02 04:40:47;;;;;;;2.93;2.33;;;11.10;99.90;;;;;;5090060;28;20792;-52
2023/05/02 04:43:14;;;;;;;3.10;2.70;;;11.00;99.90;;;;;;5089515;28;20529;-54
2023/05/02 04:45:42;;;;;;;3.70;3.13;;;11.00;99.90;;;;;;5090054;28;20445;-52
2023/05/02 04:48:09;;;;;;;4.10;3.70;;;11.00;99.90;;;;;;5089370;28;20625;-52
2023/05/02 04:50:36;;;;;;;6.07;5.13;;;11.00;99.90;;;;;;5090806;28;20454;-53
2023/05/02 04:53:03;;;;;;;4.33;3.90;;;11.00;99.90;;;;;;5089678;28;20495;-51
2023/05/02 04:55:30;;;;;;;4.23;3.83;;;10.90;99.90;;;;;;5089599;28;20477;-54
2023/05/02 04:57:57;;;;;;;3.07;2.30;;;10.90;99.90;;;;;;5089943;28;20501;-53
2023/05/02 05:00:24;;;;;;;4.23;3.80;;;11.00;99.90;;;;;;5089861;28;20526;-52
2023/05/02 05:02:52;;;;;;;3.30;2.97;;;10.90;99.90;;;;;;5089700;28;20471;-52
2023/05/02 05:05:19;;;;;;;3.83;3.30;;;10.90;99.90;;;;;;5088111;28;20959;-52
2023/05/02 05:07:46;;;;;;;5.03;4.30;;;10.80;99.90;;;;;;5092759;28;20879;-54
2023/05/02 05:10:13;;;;;;;4.23;3.83;;;10.90;99.90;;;;;;5093620;28;20495;-52
2023/05/02 05:12:41;;;;;;;3.97;3.57;;;10.80;99.90;;;;;;5092859;28;20599;-52
2023/05/02 05:15:08;;;;;;;3.53;3.23;;;10.90;99.90;;;;;;5093432;28;20449;-52
2023/05/02 05:17:36;;;;;;;3.67;3.37;;;10.80;99.90;;;;;;5093158;28;20463;-54
2023/05/02 05:20:05;;;;;;;8.50;6.93;;;10.90;99.90;;;;;;5093789;28;20963;-52
2023/05/02 05:22:38;;;;;;;6.50;5.90;;;11.00;99.90;;;;;;5094161;28;20535;-51
2023/05/02 05:25:06;;;;;;;5.33;4.83;;;11.00;99.90;;;;;;5093804;28;20994;-51
2023/05/02 05:27:34;;;;;;;4.83;4.43;;;10.90;99.90;;;;;;5093416;28;20902;-52
2023/05/02 05:30:02;;;;;;;4.13;3.57;;;10.80;99.90;;;;;;5093462;28;20442;-53
2023/05/02 05:32:29;;;;;;;5.07;4.60;;;10.90;99.90;;;;;;5093729;28;20999;-52
2023/05/02 05:34:56;;;;;;;3.60;3.30;;;11.00;99.90;;;;;;5093412;28;20533;-53
2023/05/02 05:37:25;;;;;;;3.80;3.10;;;11.00;99.90;;;;;;5093137;28;20505;-52
2023/05/02 05:39:51;;;;;;;3.93;3.53;;;11.10;99.90;;;;;;5093325;28;20531;-52
2023/05/02 05:42:18;;;;;;;4.13;3.73;;;11.10;99.90;;;;;;5091410;28;20671;-52
2023/05/02 05:44:45;;;;;;;5.73;3.30;;;11.10;99.90;;;;;;5093213;28;20482;-52
2023/05/02 05:47:12;;;;;;;3.40;3.10;;;11.20;99.90;;;;;;5091618;28;20523;-52
2023/05/02 05:49:39;;;;;;;3.43;2.87;;;11.20;99.90;;;;;;5072656;28;20528;-54
2023/05/02 05:52:07;;;;;;;4.07;3.53;;;11.20;99.90;;;;;;5073264;28;20447;-52
2023/05/02 05:54:35;;;;;;;4.30;3.83;;;11.10;99.90;;;;;;5084459;28;20455;-52
2023/05/02 05:57:02;;;;;;;3.47;3.17;;;11.00;99.90;;;;;;5092457;28;20470;-52
2023/05/02 05:59:29;;;;;;;3.00;2.63;;;11.00;99.90;;;;;;5092713;28;20451;-52
2023/05/02 06:01:56;;;;;;;4.17;3.20;;;10.80;99.90;;;;;;5093256;28;20472;-53
2023/05/02 06:04:23;;;;;;;3.70;3.40;;;10.90;99.90;;;;;;5092841;28;20502;-52
2023/05/02 06:06:52;;;;;;;4.00;3.33;;;10.90;99.90;;;;;;5092709;28;20462;-53
2023/05/02 06:09:19;;;;;;;5.23;3.10;;;10.80;99.90;;;;;;5091979;28;20496;-52
2023/05/02 06:11:47;;;;;;;3.63;3.07;;;10.50;99.90;;;;;;5092581;28;20536;-52
2023/05/02 06:14:15;;;;;;;3.57;2.83;;;10.70;99.90;;;;;;5092116;28;20470;-52
2023/05/02 06:16:42;;;;;;;5.20;2.97;;;10.90;99.90;;;;;;5092181;28;20456;-52
2023/05/02 06:19:09;;;;;;;3.40;2.83;;;10.90;99.90;;;;;;5092523;28;20474;-53
2023/05/02 06:21:37;;;;;;;3.33;3.03;;;10.80;99.90;;;;;;5092812;28;20474;-52
2023/05/02 06:24:04;;;;;;;2.77;2.27;;;11.00;99.90;;;;;;5087734;28;20471;-51
2023/05/02 06:26:31;;;;;;;3.23;2.93;;;10.80;99.90;;;;;;5092315;28;20474;-51
2023/05/02 06:29:00;;;;;;;4.00;3.70;;;10.70;99.90;;;;;;5092466;28;20453;-52
2023/05/02 06:31:26;;;;;;;3.27;2.97;;;10.70;99.90;;;;;;5092293;28;20508;-51
2023/05/02 06:33:54;;;;;;;3.47;2.60;;;10.80;99.90;;;;;;5086116;28;20556;-53
2023/05/02 06:36:21;;;;;;;2.57;2.30;;;10.90;99.90;;;;;;5072519;28;20447;-51
2023/05/02 06:38:48;;;;;;;2.67;2.43;;;10.90;99.90;;;;;;5083220;28;20502;-52
2023/05/02 06:41:15;;;;;;;4.00;2.50;;;10.80;99.90;;;;;;5072479;28;20824;-52
2023/05/02 06:43:42;;;;;;;2.50;2.10;;;10.80;99.90;;;;;;5078076;28;20537;-51
2023/05/02 06:46:10;;;;;;;1.90;1.63;;;10.90;99.90;;;;;;5092419;28;20521;-52
2023/05/02 06:48:37;;;;;;;2.70;1.80;;;11.00;99.90;;;;;;5092003;28;20489;-52
2023/05/02 06:51:04;;;;;;;2.10;1.80;;;10.90;99.90;;;;;;5092140;28;20444;-52
2023/05/02 06:53:31;;;;;;;1.83;1.63;;;11.00;99.90;;;;;;5092123;28;20562;-52
2023/05/02 06:55:58;;;;;;;2.33;1.80;;;11.00;99.90;;;;;;5084951;28;20440;-52
2023/05/02 06:58:25;;;;;;;2.00;1.80;;;11.00;99.90;;;;;;5073577;28;20495;-52
2023/05/02 07:00:52;;;;;;;2.60;1.83;;;10.80;99.90;;;;;;5091927;28;20849;-50
2023/05/02 07:03:20;;;;;;;2.50;2.30;;;10.70;99.90;;;;;;5092121;28;20466;-53
2023/05/02 07:05:47;;;;;;;2.07;1.80;;;10.70;99.90;;;;;;5088067;28;20530;-52
2023/05/02 07:08:14;;;;;;;3.30;2.10;;;10.80;99.90;;;;;;5084181;28;20551;-51
2023/05/02 07:10:40;;;;;;;2.17;1.80;;;10.90;99.90;;;;;;5092442;28;20486;-52
2023/05/02 07:13:07;;;;;;;2.00;1.70;;;10.90;99.90;;;;;;5089366;28;20513;-54
2023/05/02 07:15:34;;;;;;;2.33;2.13;;;10.90;99.90;;;;;;5088937;28;20475;-51
2023/05/02 07:18:01;;;;;;;2.83;2.37;;;10.90;99.90;;;;;;5091451;28;20467;-52
2023/05/02 07:20:29;;;;;;;3.27;2.43;;;10.80;99.90;;;;;;5091664;28;20444;-52
2023/05/02 07:22:56;;;;;;;2.63;2.27;;;10.80;99.90;;;;;;5090237;28;20537;-53
2023/05/02 07:25:23;;;;;;;2.00;1.70;;;10.90;99.90;;;;;;5091062;28;20828;-52
2023/05/02 07:27:50;;;;;;;2.00;1.60;;;11.00;99.90;;;;;;5091209;28;20546;-53
2023/05/02 07:30:17;;;;;;;2.37;2.17;;;11.00;99.90;;;;;;5083293;28;20483;-51
2023/05/02 07:32:44;;;;;;;1.80;1.57;;;11.20;99.90;;;;;;5070200;28;20923;-54
2023/05/02 07:35:11;;;;;;;2.13;1.93;;;11.20;99.90;;;;;;5078862;28;20527;-52
2023/05/02 07:37:40;;;;;;;2.00;1.20;;;11.20;99.90;;;;;;5090962;28;20505;-52
2023/05/02 07:40:08;;;;;;;1.63;1.50;;;11.20;99.90;;;;;;5087692;28;20485;-52
2023/05/02 07:42:35;;;;;;;2.00;1.50;;;11.20;99.90;;;;;;5070987;28;20480;-51
2023/05/02 07:45:02;;;;;;;2.10;1.90;;;11.20;99.90;;;;;;5080670;28;20972;-53
2023/05/02 07:47:29;;;;;;;2.17;1.97;;;11.30;99.90;;;;;;5091069;28;20494;-51
2023/05/02 07:49:56;;;;;;;2.60;2.07;;;11.30;99.90;;;;;;5085878;28;20449;-52
2023/05/02 07:52:23;;;;;;;3.00;2.23;;;11.20;99.90;;;;;;5090704;28;20517;-52
2023/05/02 07:54:52;;;;;;;2.67;2.47;;;11.30;99.90;;;;;;5087615;28;20511;-52
2023/05/02 07:57:19;;;;;;;3.70;3.40;;;11.30;99.90;;;;;;5070880;28;20556;-52
2023/05/02 07:59:46;;;;;;;3.37;3.00;;;11.30;99.90;;;;;;5080378;28;20438;-52
2023/05/02 08:02:13;;;;;;;3.50;3.17;;;11.30;99.90;;;;;;5089236;28;20516;-52
2023/05/02 08:04:40;;;;;;;3.10;2.80;;;11.30;99.90;;;;;;5090757;28;20447;-52
2023/05/02 08:07:07;;;;;;;4.53;2.80;;;11.30;99.90;;;;;;5085430;28;20555;-52
2023/05/02 08:09:34;;;;;;;4.47;3.33;;;11.30;99.90;;;;;;5090745;28;20528;-52
2023/05/02 08:12:02;;;;;;;3.83;2.83;;;11.20;99.90;;;;;;5090394;28;20533;-53
2023/05/02 08:14:30;;;;;;;2.90;2.70;;;11.20;99.90;;;;;;5090135;28;20586;-54
2023/05/02 08:16:57;;;;;;;3.50;2.63;;;11.20;99.90;;;;;;5089742;28;20478;-52
2023/05/02 08:19:24;;;;;;;3.00;2.80;;;11.10;99.90;;;;;;5090692;28;20538;-52
2023/05/02 08:21:51;;;;;;;2.40;2.07;;;11.20;99.90;;;;;;5090931;28;20475;-52
2023/05/02 08:24:18;;;;;;;2.60;2.27;;;11.20;99.90;;;;;;5089561;28;20531;-52
2023/05/02 08:26:44;;;;;;;6.60;3.00;;;11.30;99.90;;;;;;5084597;28;20467;-53
2023/05/02 08:29:13;;;;;;;3.00;2.70;;;11.30;99.90;;;;;;5089725;28;20515;-52
2023/05/02 08:31:41;;;;;;;2.37;2.17;;;11.40;99.90;;;;;;5090192;28;20474;-52
2023/05/02 08:34:07;;;;;;;2.00;1.80;;;11.30;99.90;;;;;;5090277;28;20562;-53
2023/05/02 08:36:36;;;;;;;3.03;2.00;;;11.20;99.90;;;;;;5090104;28;20984;-52
2023/05/02 08:39:03;;;;;;;2.00;1.80;;;11.10;99.90;;;;;;5089438;28;20458;-52
2023/05/02 08:41:30;;;;;;;2.07;1.87;;;11.00;99.90;;;;;;5089329;28;20445;-52
2023/05/02 08:43:59;;;;;;;1.60;1.40;;;10.80;99.90;;;;;;5090102;28;20451;-54
2023/05/02 08:46:28;;;;;;;2.13;1.80;;;10.90;99.90;;;;;;5089603;28;20533;-52
2023/05/02 08:48:57;;;;;;;2.03;1.53;;;11.10;99.90;;;;;;5089417;28;20489;-53
2023/05/02 08:51:26;;;;;;;2.20;2.00;;;10.80;99.90;;;;;;5090116;28;20450;-52
2023/05/02 08:53:54;;;;;;;2.47;1.90;;;10.80;99.90;;;;;;5077306;28;20595;-52
2023/05/02 08:56:21;;;;;;;2.77;2.47;;;10.70;99.90;;;;;;5070047;28;20533;-52
2023/05/02 08:58:48;;;;;;;2.10;1.90;;;10.80;99.90;;;;;;5078212;28;20888;-54
2023/05/02 09:01:16;;;;;;;2.33;1.83;;;10.80;99.90;;;;;;5084383;28;20482;-52
2023/05/02 09:03:46;;;;;;;2.13;1.73;;;10.60;99.90;;;;;;5089318;28;20473;-52
2023/05/02 09:06:15;;;;;;;2.47;2.27;;;10.60;99.90;;;;;;5085324;28;20545;-53
2023/05/02 09:08:43;;;;;;;2.43;2.00;;;10.80;99.90;;;;;;5081670;28;20479;-54
2023/05/02 09:11:11;;;;;;;3.40;2.10;;;11.10;99.90;;;;;;5089122;28;20447;-54
2023/05/02 09:13:40;;;;;;;3.43;1.50;;;11.20;99.90;;;;;;5084808;28;20560;-55
2023/05/02 09:16:09;;;;;;;1.63;1.43;;;11.30;99.90;;;;;;5078416;28;20450;-53
2023/05/02 09:18:38;;;;;;;2.27;2.07;;;11.30;99.90;;;;;;5089244;28;20464;-52
2023/05/02 09:21:08;;;;;;;1.63;1.37;;;11.30;99.90;;;;;;5075647;28;20435;-53
2023/05/02 09:23:40;;;;;;;1.60;1.40;;;11.20;99.90;;;;;;5089550;28;20820;-52
2023/05/02 09:26:18;;;;;;;1.80;1.60;;;10.90;99.90;;;;;;5086573;28;20471;-52
2023/05/02 09:28:46;;;;;;;1.83;1.60;;;10.90;99.90;;;;;;5080544;28;20494;-52
2023/05/02 09:31:15;;;;;;;2.73;2.10;;;10.70;99.90;;;;;;5069837;28;20469;-52
2023/05/02 09:33:42;;;;;;;2.90;1.93;;;10.70;99.90;;;;;;5069265;28;20569;-53
2023/05/02 09:36:13;;;;;;;3.50;1.40;;;10.70;99.90;;;;;;5078243;28;21028;-52
2023/05/02 09:38:40;;;;;;;2.43;1.90;;;10.80;99.90;;;;;;5075348;28;20470;-53
2023/05/02 09:41:07;;;;;;;2.40;2.00;;;11.10;99.90;;;;;;5081112;28;20535;-52
2023/05/02 09:43:34;;;;;;;2.47;1.97;;;11.20;99.90;;;;;;5089387;28;20513;-53
2023/05/02 09:46:02;;;;;;;2.07;1.83;;;10.90;99.90;;;;;;5089627;28;20940;-53
2023/05/02 09:48:31;;;;;;;2.37;2.10;;;10.90;99.90;;;;;;5087510;28;20557;-52
2023/05/02 09:50:58;;;;;;;3.33;2.10;;;10.80;99.90;;;;;;5069766;28;20468;-52
2023/05/02 09:53:28;;;;;;;2.03;1.90;;;11.00;99.90;;;;;;5083245;28;20508;-52
2023/05/02 09:56:02;;;;;;;2.17;1.97;;;11.20;99.90;;;;;;5093347;28;20874;-53
2023/05/02 09:58:30;;;;;;;2.33;2.13;;;11.10;99.90;;;;;;5093075;28;20487;-52
2023/05/02 10:00:58;;;;;;;2.20;2.00;;;11.20;99.90;;;;;;5092953;28;20451;-52
2023/05/02 10:03:26;;;;;;;2.63;2.37;;;11.30;99.90;;;;;;5092657;28;20976;-54
2023/05/02 10:05:54;;;;;;;2.63;2.33;;;11.40;99.90;;;;;;5091826;28;20476;-54
2023/05/02 10:08:22;;;;;;;2.83;2.63;;;11.50;99.90;;;;;;5091311;28;20819;-52
2023/05/02 10:10:54;;;;;;;2.60;2.40;;;11.70;99.90;;;;;;5083002;28;20823;-52
2023/05/02 10:13:23;;;;;;;2.60;2.40;;;11.70;99.90;;;;;;5081958;28;20511;-52
2023/05/02 10:15:58;;;;;;;2.30;2.10;;;11.70;99.90;;;;;;5082549;28;20440;-52
2023/05/02 10:18:28;;;;;;;3.07;2.27;;;11.50;99.90;;;;;;5082207;28;20869;-52
2023/05/02 10:21:00;;;;;;;2.50;2.30;;;11.30;99.90;;;;;;5081134;28;20970;-52
2023/05/02 10:23:29;;;;;;;3.30;2.33;;;11.50;99.90;;;;;;5081802;28;20445;-52
2023/05/02 10:25:58;;;;;;;3.97;2.43;;;11.60;99.90;;;;;;5083551;28;20470;-53
2023/05/02 10:28:26;;;;;;;3.67;2.90;;;11.70;99.90;;;;;;5081689;28;20474;-52
2023/05/02 10:30:54;;;;;;;2.80;2.60;;;11.80;99.90;;;;;;5077705;28;20818;-52
2023/05/02 10:33:22;;;;;;;3.10;2.47;;;11.90;99.90;;;;;;5084737;28;20537;-52
2023/05/02 10:35:49;;;;;;;2.47;2.23;;;12.00;99.90;;;;;;5091399;28;20447;-52
2023/05/02 10:38:18;;;;;;;2.40;2.20;;;12.00;99.90;;;;;;5091278;28;20551;-52
2023/05/02 10:40:55;;;;;;;3.90;2.27;;;11.90;99.90;;;;;;5092560;28;21008;-54
2023/05/02 10:43:27;;;;;;;2.30;2.10;;;11.70;99.90;;;;;;5072470;28;20433;-54
2023/05/02 10:45:55;;;;;;;2.40;2.20;;;11.60;99.90;;;;;;5072709;28;20707;-54
2023/05/02 10:48:25;;;;;;;2.90;2.23;;;11.60;99.90;;;;;;5072454;28;20471;-52
2023/05/02 10:50:53;;;;;;;2.80;2.57;;;11.70;99.90;;;;;;5073172;28;20811;-52
2023/05/02 10:53:31;;;;;;;3.20;2.57;;;11.70;99.90;;;;;;5083061;28;20497;-52
2023/05/02 10:56:15;;;;;;;3.17;2.87;;;11.80;99.90;;;;;;5091056;28;20427;-53
2023/05/02 10:58:45;;;;;;;4.00;2.73;;;12.00;99.90;;;;;;5090930;28;20542;-54
2023/05/02 11:01:38;;;;;;;3.67;3.07;;;12.10;99.90;;;;;;5090326;28;20497;-53
2023/05/02 11:04:09;;;;;;;2.93;2.73;;;12.10;99.90;;;;;;5081633;28;20859;-53
2023/05/02 11:06:57;;;;;;;3.13;2.83;;;12.10;99.90;;;;;;5070857;28;21077;-52
2023/05/02 11:09:32;;;;;;;3.87;3.03;;;12.00;99.90;;;;;;5070885;28;21027;-53
2023/05/02 11:12:00;;;;;;;3.80;3.40;;;12.10;99.90;;;;;;5071624;28;20443;-52
2023/05/02 11:14:51;;;;;;;3.30;2.93;;;12.20;99.90;;;;;;5070759;28;20480;-53
2023/05/02 11:17:19;;;;;;;3.70;3.40;;;12.30;99.90;;;;;;5070927;28;20563;-54
2023/05/02 11:20:25;;;;;;;3.13;2.83;;;12.30;99.90;;;;;;5071692;28;20444;-53
2023/05/02 11:22:54;;;;;;;3.63;3.30;;;12.20;99.90;;;;;;5073004;28;20437;-54
2023/05/02 11:25:31;;;;;;;3.87;3.27;;;12.20;99.90;;;;;;5091531;28;20446;-55
2023/05/02 11:27:58;;;;;;;4.20;3.83;;;12.20;99.90;;;;;;5090647;28;20538;-53
2023/05/02 11:30:42;;;;;;;2.73;2.53;;;12.20;99.90;;;;;;5091827;28;20536;-52
2023/05/02 11:33:19;;;;;;;3.33;3.00;;;12.20;99.90;;;;;;5091649;28;20522;-54
2023/05/02 11:35:47;;;;;;;3.43;3.13;;;12.10;99.90;;;;;;5091699;28;20907;-54
2023/05/02 11:38:16;;;;;;;3.23;2.93;;;12.10;99.90;;;;;;5089972;28;20562;-52
2023/05/02 11:40:57;;;;;;;2.83;2.50;;;11.70;99.90;;;;;;5090975;28;20909;-53
2023/05/02 11:43:26;;;;;;;4.13;3.63;;;11.60;99.90;;;;;;5075961;28;20497;-53
2023/05/02 11:45:55;;;;;;;5.57;2.90;;;11.60;99.90;;;;;;5089964;28;20705;-53
2023/05/02 11:48:26;;;;;;;3.33;2.97;;;11.70;99.90;;;;;;5077237;28;20814;-53
2023/05/02 11:50:54;;;;;;;3.50;3.00;;;11.90;99.90;;;;;;5091466;28;20836;-54
2023/05/02 11:53:22;;;;;;;2.90;2.70;;;12.00;99.90;;;;;;5090420;28;20451;-52
2023/05/02 11:55:51;;;;;;;2.50;2.30;;;12.10;99.90;;;;;;5090495;28;20514;-52
2023/05/02 11:58:19;;;;;;;3.37;2.63;;;12.00;99.90;;;;;;5089321;28;20494;-52
2023/05/02 12:00:47;;;;;;;3.27;2.47;;;11.90;99.90;;;;;;5085411;28;20527;-53
2023/05/02 12:03:29;;;;;;;2.97;2.77;;;12.00;99.90;;;;;;5075767;28;20526;-53
2023/05/02 12:05:56;;;;;;;3.27;2.50;;;11.80;99.90;;;;;;5074915;28;20440;-52
2023/05/02 12:08:25;;;;;;;2.43;2.10;;;11.70;99.90;;;;;;5090635;28;20499;-53
2023/05/02 12:10:54;;;;;;;3.20;2.90;;;11.70;99.90;;;;;;5085768;28;21162;-52
2023/05/02 12:13:23;;;;;;;2.93;2.63;;;11.70;99.90;;;;;;5071756;28;20447;-52
2023/05/02 12:15:52;;;;;;;3.37;3.00;;;11.80;99.90;;;;;;5075614;28;21021;-52
2023/05/02 12:18:22;;;;;;;3.20;2.90;;;11.90;99.90;;;;;;5085971;28;20550;-52
2023/05/02 12:20:51;;;;;;;3.90;3.40;;;12.00;99.90;;;;;;5090842;28;20456;-54
2023/05/02 12:23:20;;;;;;;4.17;3.77;;;12.20;99.90;;;;;;5090494;28;20809;-53
2023/05/02 12:25:47;;;;;;;3.70;3.40;;;12.20;99.90;;;;;;5089294;28;20944;-52
2023/05/02 12:28:14;;;;;;;3.17;2.93;;;12.30;99.90;;;;;;5089800;28;20466;-53
2023/05/02 12:30:41;;;;;;;2.83;2.63;;;12.20;99.90;;;;;;5090621;28;20479;-54
2023/05/02 12:33:08;;;;;;;2.77;2.47;;;12.30;99.90;;;;;;5090630;28;20447;-52
2023/05/02 12:35:35;;;;;;;2.80;2.50;;;12.20;99.90;;;;;;5084122;28;20508;-53
2023/05/02 12:38:15;;;;;;;2.73;2.37;;;12.20;99.90;;;;;;5071969;28;20472;-53
2023/05/02 12:40:50;;;;;;;2.57;1.90;;;12.10;99.90;;;;;;5089964;28;20968;-52
2023/05/02 12:43:17;;;;;;;2.50;2.27;;;12.10;99.90;;;;;;5090373;28;20440;-52
2023/05/02 12:45:44;;;;;;;2.60;2.40;;;12.30;99.90;;;;;;5090429;28;20504;-54
2023/05/02 12:48:22;;;;;;;3.10;2.33;;;12.40;99.90;;;;;;5089858;28;20472;-53
2023/05/02 12:50:50;;;;;;;2.33;2.13;;;12.40;99.90;;;;;;5089099;28;20518;-52
2023/05/02 12:53:37;;;;;;;2.10;1.90;;;12.40;99.90;;;;;;5090210;28;20523;-54
2023/05/02 12:56:04;;;;;;;3.80;3.13;;;12.50;99.90;;;;;;5090341;28;20518;-52
2023/05/02 12:58:41;;;;;;;3.10;2.80;;;12.60;99.90;;;;;;5090175;28;20542;-53